Impacts TAF Board
For situational awareness. Not to be used for flight planning purposes.
IDs:

KMSP - Minneapolis-St Paul, MN, US

Issued at 1426 UTC 21 May 2019
Updated at 1429 UTC 21 May 2019
Potential Impact None Slight Moderate High
Time<<22/03Z 22/04Z 22/05Z 22/06Z 22/07Z 22/08Z 22/09Z 22/10Z 22/11Z 22/12Z 22/13Z 22/14Z 22/15Z>>
Type PRVL PRVL PRVL PRVL PRVL PRVL PRVL PRVL PRVL PRVL PRVL PRVL PRVL
VIS 4 4 4 6 6 6 6 6 6 6 6 6 >6
CIG 22 22 22 15 15 15 15 15 15 15 15 15 8
Cover OVC OVC OVC OVC OVC OVC OVC OVC OVC OVC OVC OVC OVC
FltCat MVFR MVFR MVFR MVFR MVFR MVFR MVFR MVFR MVFR MVFR MVFR MVFR IFR
WX RA BR RA BR RA BR -RA BR -RA BR -RA BR -RA BR -RA BR -RA BR -RA BR -RA BR -RA BR VCSH
WDir 80 80 80 90 90 90 90 90 90 90 90 90 120
WSpd 25 25 25 20 20 20 20 20 20 20 20 20 13
WGst 42 42 42 34 34 34 34 34 34 34 34 34 22
Raw TAF
KMSP 211426Z 2114/2218 10010KT P6SM OVC170
  FM211530 09014G22KT P6SM OVC150
  FM212000 08020G30KT P6SM OVC100
  FM212300 08025G42KT 6SM -RA BR OVC050
  FM220300 08025G42KT 4SM RA BR OVC022
  FM220600 09020G34KT 6SM -RA BR OVC015
  FM221500 12013G22KT P6SM VCSH OVC008


METAR Board
Radar Display
Forecast Discussion
For situational awareness. Not to be used for flight planning purposes.